AAL883 KATL-KBOS
Flight info
| Callsign | AAL883 |
|---|---|
| Flight time | N/A |
| Altitude | 35000 |
| Route | PLMMR3 BURGG Q22 RBV Q419 JFK ROBUC3 |
| Aircraft | A321/M-SDE3FGHIRWY/LB1 |
Departure
| Time | N/A |
|---|---|
| Airport | Hartsfield Jackson Atlanta International Airport (KATL) |
Arrival
| Time | 2026-05-08 00:32 |
|---|---|
| Airport | Boston Logan International Airport (KBOS) |
| Time | Latitude | Longitude | Altitude | Speed | Heading |
|---|---|---|---|---|---|
| 2026-05-07 23:40 | 40.60915 | -73.87303 | 34833 ft | 546 kts | 71° |
| 2026-05-07 23:40 | 40.63708 | -73.78041 | 34881 ft | 542 kts | 57° |
| 2026-05-07 23:41 | 40.68097 | -73.70130 | 34865 ft | 531 kts | 41° |
| 2026-05-07 23:41 | 40.73065 | -73.62898 | 34803 ft | 535 kts | 42° |
| 2026-05-07 23:42 | 40.75578 | -73.59222 | 34674 ft | 543 kts | 42° |
| 2026-05-07 23:42 | 40.78124 | -73.55488 | 34520 ft | 551 kts | 42° |
| 2026-05-07 23:42 | 40.83294 | -73.47884 | 34257 ft | 561 kts | 43° |
| 2026-05-07 23:43 | 40.85900 | -73.44032 | 34103 ft | 562 kts | 43° |
| 2026-05-07 23:43 | 40.88495 | -73.40192 | 33846 ft | 557 kts | 42° |
| 2026-05-07 23:43 | 40.91072 | -73.36372 | 32950 ft | 556 kts | 43° |
| 2026-05-07 23:43 | 40.93635 | -73.32574 | 32261 ft | 551 kts | 43° |
| 2026-05-07 23:44 | 40.96178 | -73.28805 | 31572 ft | 546 kts | 43° |
| 2026-05-07 23:44 | 40.98690 | -73.25078 | 31020 ft | 541 kts | 43° |
| 2026-05-07 23:44 | 41.01148 | -73.21429 | 30467 ft | 535 kts | 43° |
| 2026-05-07 23:44 | 41.03613 | -73.17764 | 29932 ft | 530 kts | 43° |
| 2026-05-07 23:45 | 41.06051 | -73.14135 | 29313 ft | 525 kts | 43° |
| 2026-05-07 23:45 | 41.08464 | -73.10544 | 28710 ft | 520 kts | 44° |
| 2026-05-07 23:45 | 41.10864 | -73.06967 | 28118 ft | 515 kts | 44° |
| 2026-05-07 23:45 | 41.13233 | -73.03432 | 27539 ft | 510 kts | 44° |
| 2026-05-07 23:46 | 41.15572 | -72.99939 | 27146 ft | 501 kts | 44° |
| 2026-05-07 23:46 | 41.17841 | -72.96537 | 26901 ft | 485 kts | 44° |
| 2026-05-07 23:46 | 41.20036 | -72.93185 | 26475 ft | 478 kts | 48° |
| 2026-05-07 23:46 | 41.21898 | -72.89550 | 25996 ft | 476 kts | 59° |
| 2026-05-07 23:47 | 41.23416 | -72.85662 | 25463 ft | 472 kts | 62° |
| 2026-05-07 23:47 | 41.24893 | -72.81792 | 24937 ft | 468 kts | 62° |
| 2026-05-07 23:47 | 41.26359 | -72.77941 | 24423 ft | 464 kts | 62° |
| 2026-05-07 23:47 | 41.27815 | -72.74118 | 23905 ft | 460 kts | 62° |
| 2026-05-07 23:48 | 41.29255 | -72.70341 | 23419 ft | 456 kts | 62° |
| 2026-05-07 23:48 | 41.30664 | -72.66641 | 22968 ft | 453 kts | 62° |
| 2026-05-07 23:48 | 41.32088 | -72.62905 | 22820 ft | 452 kts | 62° |
| 2026-05-07 23:48 | 41.33514 | -72.59167 | 22836 ft | 454 kts | 63° |
| 2026-05-07 23:49 | 41.34944 | -72.55415 | 22860 ft | 455 kts | 63° |
| 2026-05-07 23:49 | 41.36371 | -72.51659 | 22864 ft | 455 kts | 63° |
| 2026-05-07 23:49 | 41.37789 | -72.47899 | 22855 ft | 455 kts | 63° |
| 2026-05-07 23:49 | 41.39210 | -72.44122 | 22862 ft | 455 kts | 63° |
| 2026-05-07 23:50 | 41.40628 | -72.40353 | 22858 ft | 455 kts | 63° |
| 2026-05-07 23:50 | 41.42048 | -72.36587 | 22856 ft | 455 kts | 63° |
| 2026-05-07 23:50 | 41.43472 | -72.32815 | 22860 ft | 455 kts | 63° |
| 2026-05-07 23:50 | 41.44892 | -72.29048 | 22856 ft | 455 kts | 63° |
| 2026-05-07 23:51 | 41.46310 | -72.25277 | 22823 ft | 455 kts | 63° |
| 2026-05-07 23:51 | 41.47724 | -72.21511 | 22849 ft | 454 kts | 63° |
| 2026-05-07 23:51 | 41.49135 | -72.17732 | 22593 ft | 456 kts | 63° |
| 2026-05-07 23:51 | 41.50519 | -72.13974 | 22321 ft | 450 kts | 64° |
| 2026-05-07 23:52 | 41.51886 | -72.10225 | 21937 ft | 448 kts | 64° |
| 2026-05-07 23:52 | 41.53240 | -72.06491 | 21553 ft | 446 kts | 64° |
| 2026-05-07 23:52 | 41.54587 | -72.02783 | 21177 ft | 443 kts | 64° |
| 2026-05-07 23:52 | 41.55918 | -71.99081 | 20801 ft | 441 kts | 65° |
| 2026-05-07 23:53 | 41.56744 | -71.96613 | 20551 ft | 439 kts | 67° |
| 2026-05-07 23:53 | 41.58272 | -71.91634 | 20082 ft | 436 kts | 70° |
| 2026-05-07 23:53 | 41.59356 | -71.87868 | 19687 ft | 433 kts | 70° |
| 2026-05-07 23:53 | 41.60422 | -71.84104 | 19322 ft | 431 kts | 71° |
| 2026-05-07 23:54 | 41.61483 | -71.80369 | 18952 ft | 429 kts | 70° |
| 2026-05-07 23:54 | 41.62206 | -71.77861 | 18705 ft | 427 kts | 70° |
| 2026-05-07 23:54 | 41.63280 | -71.74175 | 18340 ft | 425 kts | 70° |
| 2026-05-07 23:54 | 41.64346 | -71.70548 | 17971 ft | 423 kts | 70° |
| 2026-05-07 23:55 | 41.65423 | -71.66907 | 17602 ft | 420 kts | 70° |
| 2026-05-07 23:55 | 41.66491 | -71.63290 | 17245 ft | 417 kts | 69° |
| 2026-05-07 23:55 | 41.67547 | -71.59697 | 16894 ft | 413 kts | 69° |
| 2026-05-07 23:55 | 41.68595 | -71.56134 | 16539 ft | 409 kts | 69° |
| 2026-05-07 23:56 | 41.69627 | -71.52620 | 16232 ft | 402 kts | 69° |
| 2026-05-07 23:56 | 41.70637 | -71.49164 | 15880 ft | 396 kts | 69° |
| 2026-05-07 23:56 | 41.71632 | -71.45755 | 15540 ft | 391 kts | 69° |
| 2026-05-07 23:56 | 41.72701 | -71.42437 | 15209 ft | 385 kts | 60° |
| 2026-05-07 23:57 | 41.74017 | -71.39332 | 14889 ft | 382 kts | 58° |
| 2026-05-07 23:57 | 41.75328 | -71.36261 | 14565 ft | 378 kts | 58° |
| 2026-05-07 23:57 | 41.76628 | -71.33217 | 14245 ft | 375 kts | 58° |
| 2026-05-07 23:57 | 41.77920 | -71.30195 | 13926 ft | 372 kts | 58° |
| 2026-05-07 23:58 | 41.79199 | -71.27196 | 13608 ft | 369 kts | 58° |
| 2026-05-07 23:58 | 41.80468 | -71.24225 | 13253 ft | 365 kts | 58° |
| 2026-05-07 23:58 | 41.81706 | -71.21321 | 12951 ft | 362 kts | 58° |
| 2026-05-07 23:58 | 41.82965 | -71.18361 | 12642 ft | 359 kts | 58° |
| 2026-05-07 23:59 | 41.84189 | -71.15475 | 12388 ft | 352 kts | 58° |
| 2026-05-07 23:59 | 41.85385 | -71.12657 | 12136 ft | 344 kts | 58° |
| 2026-05-07 23:59 | 41.86546 | -71.09938 | 11801 ft | 338 kts | 57° |
| 2026-05-07 23:59 | 41.87717 | -71.07222 | 11444 ft | 334 kts | 57° |
| 2026-05-08 00:00 | 41.88875 | -71.04548 | 11176 ft | 329 kts | 57° |
| 2026-05-08 00:00 | 41.90018 | -71.01910 | 10928 ft | 325 kts | 57° |
| 2026-05-08 00:00 | 41.91151 | -70.99296 | 10680 ft | 323 kts | 57° |
| 2026-05-08 00:00 | 41.92276 | -70.96702 | 10434 ft | 320 kts | 57° |
| 2026-05-08 00:01 | 41.93387 | -70.94127 | 10193 ft | 317 kts | 57° |
| 2026-05-08 00:01 | 41.94485 | -70.91575 | 9960 ft | 314 kts | 57° |
| 2026-05-08 00:01 | 41.95575 | -70.89042 | 9831 ft | 312 kts | 57° |
| 2026-05-08 00:01 | 41.96661 | -70.86516 | 9696 ft | 312 kts | 57° |
| 2026-05-08 00:02 | 41.97740 | -70.83996 | 9561 ft | 311 kts | 57° |
| 2026-05-08 00:02 | 41.98814 | -70.81476 | 9427 ft | 310 kts | 57° |
| 2026-05-08 00:02 | 41.99885 | -70.78968 | 9303 ft | 308 kts | 57° |
| 2026-05-08 00:02 | 42.00981 | -70.76508 | 9174 ft | 305 kts | 51° |
| 2026-05-08 00:03 | 42.02335 | -70.74335 | 9038 ft | 302 kts | 44° |
| 2026-05-08 00:03 | 42.03715 | -70.72281 | 8899 ft | 289 kts | 44° |
| 2026-05-08 00:03 | 42.05037 | -70.70307 | 8765 ft | 277 kts | 44° |
| 2026-05-08 00:03 | 42.06287 | -70.68435 | 8659 ft | 261 kts | 44° |
| 2026-05-08 00:04 | 42.07480 | -70.66646 | 8522 ft | 254 kts | 44° |
| 2026-05-08 00:04 | 42.08654 | -70.64888 | 8397 ft | 252 kts | 44° |
| 2026-05-08 00:04 | 42.09880 | -70.63232 | 8189 ft | 247 kts | 34° |
| 2026-05-08 00:04 | 42.11306 | -70.62001 | 8041 ft | 241 kts | 21° |
| 2026-05-08 00:05 | 42.12859 | -70.61227 | 8008 ft | 237 kts | 9° |
| 2026-05-08 00:05 | 42.14455 | -70.60856 | 7786 ft | 235 kts | 360° |
| 2026-05-08 00:05 | 42.16048 | -70.60999 | 7529 ft | 228 kts | 347° |
| 2026-05-08 00:05 | 42.17608 | -70.61346 | 7279 ft | 226 kts | 346° |
| 2026-05-08 00:06 | 42.19159 | -70.61718 | 7020 ft | 225 kts | 346° |
| 2026-05-08 00:06 | 42.20697 | -70.62100 | 6773 ft | 225 kts | 346° |
| 2026-05-08 00:06 | 42.22230 | -70.62493 | 6524 ft | 224 kts | 346° |
| 2026-05-08 00:06 | 42.23755 | -70.62894 | 6276 ft | 222 kts | 346° |
| 2026-05-08 00:07 | 42.25270 | -70.63297 | 6018 ft | 221 kts | 346° |
| 2026-05-08 00:07 | 42.26778 | -70.63700 | 5753 ft | 221 kts | 346° |
| 2026-05-08 00:07 | 42.28279 | -70.64104 | 5492 ft | 220 kts | 346° |
| 2026-05-08 00:07 | 42.29774 | -70.64504 | 5237 ft | 219 kts | 346° |
| 2026-05-08 00:08 | 42.31266 | -70.64903 | 4977 ft | 218 kts | 346° |
| 2026-05-08 00:08 | 42.32752 | -70.65300 | 4711 ft | 217 kts | 346° |
| 2026-05-08 00:08 | 42.34228 | -70.65695 | 4468 ft | 216 kts | 346° |
| 2026-05-08 00:08 | 42.35697 | -70.66084 | 4207 ft | 215 kts | 346° |
| 2026-05-08 00:09 | 42.37158 | -70.66468 | 3938 ft | 213 kts | 346° |
| 2026-05-08 00:09 | 42.38609 | -70.66873 | 3653 ft | 211 kts | 339° |
| 2026-05-08 00:09 | 42.39768 | -70.67960 | 3431 ft | 204 kts | 304° |
| 2026-05-08 00:09 | 42.40339 | -70.69703 | 3285 ft | 204 kts | 288° |
| 2026-05-08 00:10 | 42.40658 | -70.71572 | 3139 ft | 204 kts | 274° |
| 2026-05-08 00:10 | 42.40465 | -70.73473 | 3042 ft | 205 kts | 259° |
| 2026-05-08 00:10 | 42.40134 | -70.75355 | 3011 ft | 206 kts | 258° |
| 2026-05-08 00:10 | 42.39802 | -70.77250 | 3015 ft | 207 kts | 259° |
| 2026-05-08 00:11 | 42.39471 | -70.79141 | 2910 ft | 207 kts | 259° |
| 2026-05-08 00:11 | 42.39140 | -70.81032 | 2671 ft | 207 kts | 259° |
| 2026-05-08 00:11 | 42.38810 | -70.82916 | 2403 ft | 205 kts | 259° |
| 2026-05-08 00:11 | 42.38487 | -70.84755 | 2139 ft | 196 kts | 259° |
| 2026-05-08 00:12 | 42.38181 | -70.86497 | 1879 ft | 186 kts | 259° |
| 2026-05-08 00:12 | 42.37888 | -70.88163 | 1627 ft | 178 kts | 261° |
| 2026-05-08 00:12 | 42.37608 | -70.89758 | 1383 ft | 171 kts | 260° |
| 2026-05-08 00:12 | 42.37338 | -70.91294 | 1152 ft | 165 kts | 259° |
| 2026-05-08 00:13 | 42.37081 | -70.92758 | 950 ft | 159 kts | 259° |
| 2026-05-08 00:13 | 42.36829 | -70.94188 | 750 ft | 149 kts | 257° |
| 2026-05-08 00:13 | 42.36598 | -70.95498 | 563 ft | 138 kts | 259° |
| 2026-05-08 00:13 | 42.36392 | -70.96739 | 424 ft | 137 kts | 260° |
| 2026-05-08 00:14 | 42.36151 | -70.98032 | 185 ft | 142 kts | 259° |
| 2026-05-08 00:14 | 42.35932 | -70.99299 | 29 ft | 136 kts | 259° |
| 2026-05-08 00:14 | 42.35726 | -71.00409 | 181 ft | 116 kts | 258° |
| 2026-05-08 00:14 | 42.35498 | -71.01558 | 765 ft | 136 kts | 259° |
| 2026-05-08 00:15 | 42.35247 | -71.02844 | 1521 ft | 146 kts | 259° |
| 2026-05-08 00:15 | 42.34983 | -71.04203 | 2062 ft | 154 kts | 259° |
| 2026-05-08 00:15 | 42.34701 | -71.05676 | 2297 ft | 169 kts | 259° |
| 2026-05-08 00:15 | 42.34393 | -71.07316 | 2432 ft | 192 kts | 258° |
| 2026-05-08 00:16 | 42.34054 | -71.09167 | 2616 ft | 213 kts | 259° |
| 2026-05-08 00:16 | 42.33550 | -71.11096 | 2996 ft | 223 kts | 238° |
| 2026-05-08 00:16 | 42.32367 | -71.12451 | 3421 ft | 232 kts | 206° |
| 2026-05-08 00:16 | 42.30811 | -71.13110 | 3831 ft | 236 kts | 197° |
| 2026-05-08 00:17 | 42.29200 | -71.13619 | 4013 ft | 238 kts | 196° |
| 2026-05-08 00:17 | 42.27582 | -71.14104 | 4031 ft | 237 kts | 196° |
| 2026-05-08 00:17 | 42.25967 | -71.14580 | 4033 ft | 237 kts | 196° |
| 2026-05-08 00:17 | 42.24354 | -71.15052 | 4031 ft | 238 kts | 196° |
| 2026-05-08 00:18 | 42.22710 | -71.15340 | 4034 ft | 242 kts | 177° |
| 2026-05-08 00:18 | 42.21129 | -71.14564 | 4034 ft | 247 kts | 144° |
| 2026-05-08 00:18 | 42.20043 | -71.12780 | 4035 ft | 249 kts | 111° |
| 2026-05-08 00:18 | 42.19770 | -71.10513 | 4034 ft | 246 kts | 83° |
| 2026-05-08 00:19 | 42.20004 | -71.08231 | 4036 ft | 246 kts | 77° |
| 2026-05-08 00:19 | 42.20320 | -71.05963 | 4034 ft | 246 kts | 76° |
| 2026-05-08 00:19 | 42.20650 | -71.03699 | 4033 ft | 246 kts | 76° |
| 2026-05-08 00:19 | 42.20980 | -71.01432 | 4032 ft | 246 kts | 76° |
| 2026-05-08 00:20 | 42.21311 | -70.99172 | 4028 ft | 245 kts | 76° |
| 2026-05-08 00:20 | 42.21640 | -70.96929 | 4021 ft | 246 kts | 76° |
| 2026-05-08 00:20 | 42.21974 | -70.94665 | 4021 ft | 246 kts | 76° |
| 2026-05-08 00:20 | 42.22314 | -70.92401 | 4022 ft | 246 kts | 76° |
| 2026-05-08 00:21 | 42.22660 | -70.90142 | 4022 ft | 246 kts | 76° |
| 2026-05-08 00:21 | 42.23007 | -70.87880 | 4022 ft | 245 kts | 76° |
| 2026-05-08 00:21 | 42.23357 | -70.85631 | 4019 ft | 246 kts | 76° |
| 2026-05-08 00:21 | 42.23712 | -70.83372 | 4018 ft | 246 kts | 76° |
| 2026-05-08 00:22 | 42.24064 | -70.81116 | 4017 ft | 246 kts | 76° |
| 2026-05-08 00:22 | 42.24413 | -70.78855 | 4016 ft | 246 kts | 76° |
| 2026-05-08 00:22 | 42.24763 | -70.76597 | 4015 ft | 246 kts | 76° |
| 2026-05-08 00:22 | 42.25111 | -70.74342 | 4015 ft | 246 kts | 76° |
| 2026-05-08 00:23 | 42.25464 | -70.72085 | 4012 ft | 246 kts | 76° |
| 2026-05-08 00:23 | 42.25816 | -70.69829 | 4011 ft | 246 kts | 76° |
| 2026-05-08 00:23 | 42.26166 | -70.67571 | 4009 ft | 246 kts | 76° |
| 2026-05-08 00:23 | 42.26518 | -70.65315 | 4008 ft | 246 kts | 76° |
| 2026-05-08 00:24 | 42.26894 | -70.63066 | 4008 ft | 245 kts | 69° |
| 2026-05-08 00:24 | 42.27779 | -70.61174 | 3917 ft | 237 kts | 36° |
| 2026-05-08 00:24 | 42.29209 | -70.60227 | 3734 ft | 227 kts | 4° |
| 2026-05-08 00:24 | 42.30761 | -70.60303 | 3555 ft | 223 kts | 348° |
| 2026-05-08 00:25 | 42.32290 | -70.60657 | 3386 ft | 223 kts | 346° |
| 2026-05-08 00:25 | 42.33814 | -70.61047 | 3196 ft | 222 kts | 346° |
| 2026-05-08 00:25 | 42.35330 | -70.61442 | 3068 ft | 222 kts | 346° |
| 2026-05-08 00:25 | 42.36843 | -70.61830 | 3009 ft | 221 kts | 346° |
| 2026-05-08 00:26 | 42.38350 | -70.62239 | 3005 ft | 221 kts | 341° |
| 2026-05-08 00:26 | 42.39576 | -70.63231 | 3015 ft | 203 kts | 309° |
| 2026-05-08 00:26 | 42.40191 | -70.64900 | 3007 ft | 198 kts | 288° |
| 2026-05-08 00:26 | 42.40585 | -70.66675 | 3007 ft | 196 kts | 286° |
| 2026-05-08 00:27 | 42.40956 | -70.68450 | 3009 ft | 195 kts | 286° |
| 2026-05-08 00:27 | 42.41070 | -70.70261 | 3013 ft | 198 kts | 258° |
| 2026-05-08 00:27 | 42.40692 | -70.72058 | 3015 ft | 199 kts | 259° |
| 2026-05-08 00:27 | 42.40381 | -70.73877 | 3015 ft | 198 kts | 259° |
| 2026-05-08 00:28 | 42.40072 | -70.75686 | 3014 ft | 198 kts | 259° |
| 2026-05-08 00:28 | 42.39757 | -70.77502 | 3016 ft | 198 kts | 259° |
| 2026-05-08 00:28 | 42.39439 | -70.79321 | 2889 ft | 199 kts | 259° |
| 2026-05-08 00:28 | 42.39123 | -70.81132 | 2654 ft | 198 kts | 259° |
| 2026-05-08 00:29 | 42.38811 | -70.82909 | 2416 ft | 190 kts | 259° |
| 2026-05-08 00:29 | 42.38517 | -70.84585 | 2154 ft | 181 kts | 260° |
| 2026-05-08 00:29 | 42.38233 | -70.86201 | 1910 ft | 173 kts | 260° |
| 2026-05-08 00:29 | 42.37960 | -70.87758 | 1690 ft | 167 kts | 260° |
| 2026-05-08 00:30 | 42.37695 | -70.89266 | 1453 ft | 162 kts | 261° |
| 2026-05-08 00:30 | 42.37438 | -70.90726 | 1240 ft | 158 kts | 260° |
| 2026-05-08 00:30 | 42.37187 | -70.92157 | 1025 ft | 154 kts | 259° |
| 2026-05-08 00:30 | 42.36942 | -70.93546 | 847 ft | 148 kts | 258° |
| 2026-05-08 00:31 | 42.36708 | -70.94875 | 651 ft | 142 kts | 257° |
| 2026-05-08 00:31 | 42.36486 | -70.96157 | 465 ft | 135 kts | 260° |
| 2026-05-08 00:31 | 42.36266 | -70.97416 | 302 ft | 137 kts | 260° |
| 2026-05-08 00:31 | 42.36039 | -70.98662 | 86 ft | 136 kts | 261° |
| 2026-05-08 00:32 | 42.35833 | -70.99856 | 26 ft | 115 kts | 256° |
| 2026-05-08 00:32 | 42.35693 | -71.00639 | 25 ft | 60 kts | 256° |
| 2026-05-08 00:32 | 42.35633 | -71.00993 | 25 ft | 25 kts | 263° |
| 2026-05-08 00:32 | 42.35682 | -71.01197 | 27 ft | 22 kts | 308° |
| 2026-05-08 00:33 | 42.35749 | -71.01336 | 28 ft | 12 kts | 289° |
| 2026-05-08 00:33 | 42.35750 | -71.01342 | 28 ft | 0 kts | 289° |
| 2026-05-08 00:34 | 42.35761 | -71.01382 | 27 ft | 9 kts | 289° |
| 2026-05-08 00:34 | 42.35788 | -71.01486 | 27 ft | 13 kts | 289° |
| 2026-05-08 00:34 | 42.35817 | -71.01602 | 27 ft | 13 kts | 284° |
| 2026-05-08 00:34 | 42.35870 | -71.01662 | 28 ft | 11 kts | 351° |
| 2026-05-08 00:35 | 42.35908 | -71.01735 | 25 ft | 10 kts | 282° |
| 2026-05-08 00:35 | 42.35924 | -71.01825 | 29 ft | 10 kts | 289° |
| 2026-05-08 00:35 | 42.35957 | -71.01906 | 25 ft | 10 kts | 301° |
| 2026-05-08 00:35 | 42.35992 | -71.01987 | 29 ft | 10 kts | 301° |
| 2026-05-08 00:36 | 42.36037 | -71.02053 | 25 ft | 9 kts | 340° |
| 2026-05-08 00:36 | 42.36096 | -71.02070 | 26 ft | 4 kts | 346° |
| 2026-05-08 00:36 | 42.36109 | -71.02074 | 27 ft | 2 kts | 346° |
| 2026-05-08 00:36 | 42.36119 | -71.02077 | 26 ft | 2 kts | 347° |
| 2026-05-08 00:37 | 42.36127 | -71.02080 | 27 ft | 0 kts | 347° |
| 2026-05-08 00:39 | 42.36126 | -71.02080 | 25 ft | 0 kts | 347° |